CPA974 RPLL-VHHH
Flight info
| Callsign | CPA974 |
|---|---|
| Flight time | 1h 34m |
| Altitude | 34000 |
| Route | CAB2R/06 CAB A461 NOMAN V533 BETTY BETY3A/07L |
| Aircraft | A359/H-SDE2E3GHIJ1J3J4J5LM1ORWXYZ/LB1D1 |
Departure
| Time | 2026-04-30 09:03 |
|---|---|
| Airport | Ninoy Aquino International Airport (RPLL) |
Arrival
| Time | 2026-04-30 10:37 |
|---|---|
| Airport | Hong Kong International Airport (VHHH) |
| Time | Latitude | Longitude | Altitude | Speed | Heading |
|---|---|---|---|---|---|
| 2026-04-30 08:39 | 14.51890 | 121.01265 | 88 ft | 0 kts | 46° |
| 2026-04-30 08:48 | 14.51886 | 121.01261 | 89 ft | 2 kts | 46° |
| 2026-04-30 08:48 | 14.51876 | 121.01251 | 89 ft | 2 kts | 46° |
| 2026-04-30 08:48 | 14.51866 | 121.01239 | 89 ft | 2 kts | 46° |
| 2026-04-30 08:48 | 14.51856 | 121.01228 | 89 ft | 2 kts | 56° |
| 2026-04-30 08:49 | 14.51850 | 121.01215 | 89 ft | 2 kts | 78° |
| 2026-04-30 08:49 | 14.51848 | 121.01199 | 89 ft | 2 kts | 96° |
| 2026-04-30 08:49 | 14.51852 | 121.01184 | 89 ft | 2 kts | 115° |
| 2026-04-30 08:49 | 14.51859 | 121.01171 | 89 ft | 1 kts | 133° |
| 2026-04-30 08:50 | 14.51863 | 121.01168 | 89 ft | 0 kts | 135° |
| 2026-04-30 08:50 | 14.51862 | 121.01168 | 89 ft | 0 kts | 135° |
| 2026-04-30 08:53 | 14.51861 | 121.01170 | 89 ft | 1 kts | 135° |
| 2026-04-30 08:53 | 14.51840 | 121.01191 | 89 ft | 7 kts | 135° |
| 2026-04-30 08:53 | 14.51793 | 121.01241 | 89 ft | 11 kts | 135° |
| 2026-04-30 08:53 | 14.51728 | 121.01308 | 89 ft | 14 kts | 135° |
| 2026-04-30 08:54 | 14.51649 | 121.01389 | 88 ft | 16 kts | 135° |
| 2026-04-30 08:54 | 14.51581 | 121.01459 | 88 ft | 14 kts | 135° |
| 2026-04-30 08:54 | 14.51501 | 121.01543 | 89 ft | 17 kts | 134° |
| 2026-04-30 08:54 | 14.51417 | 121.01631 | 89 ft | 16 kts | 135° |
| 2026-04-30 08:55 | 14.51332 | 121.01718 | 89 ft | 18 kts | 134° |
| 2026-04-30 08:55 | 14.51234 | 121.01819 | 89 ft | 18 kts | 135° |
| 2026-04-30 08:55 | 14.51145 | 121.01911 | 89 ft | 14 kts | 135° |
| 2026-04-30 08:55 | 14.51114 | 121.01936 | 88 ft | 0 kts | 154° |
| 2026-04-30 08:56 | 14.51105 | 121.01945 | 88 ft | 4 kts | 129° |
| 2026-04-30 08:56 | 14.51075 | 121.01977 | 88 ft | 5 kts | 149° |
| 2026-04-30 08:56 | 14.51039 | 121.01968 | 89 ft | 8 kts | 221° |
| 2026-04-30 08:56 | 14.50989 | 121.01893 | 89 ft | 15 kts | 239° |
| 2026-04-30 08:57 | 14.50925 | 121.01780 | 89 ft | 18 kts | 239° |
| 2026-04-30 08:57 | 14.50849 | 121.01641 | 89 ft | 26 kts | 241° |
| 2026-04-30 08:57 | 14.50760 | 121.01482 | 89 ft | 23 kts | 240° |
| 2026-04-30 08:57 | 14.50670 | 121.01318 | 89 ft | 27 kts | 240° |
| 2026-04-30 08:58 | 14.50587 | 121.01169 | 89 ft | 22 kts | 241° |
| 2026-04-30 08:58 | 14.50505 | 121.01024 | 89 ft | 25 kts | 240° |
| 2026-04-30 08:58 | 14.50418 | 121.00866 | 89 ft | 25 kts | 240° |
| 2026-04-30 08:58 | 14.50333 | 121.00714 | 88 ft | 24 kts | 240° |
| 2026-04-30 08:59 | 14.50254 | 121.00572 | 88 ft | 21 kts | 239° |
| 2026-04-30 08:59 | 14.50181 | 121.00439 | 88 ft | 20 kts | 240° |
| 2026-04-30 08:59 | 14.50132 | 121.00350 | 88 ft | 7 kts | 240° |
| 2026-04-30 08:59 | 14.50107 | 121.00304 | 89 ft | 11 kts | 240° |
| 2026-04-30 09:00 | 14.50054 | 121.00211 | 88 ft | 19 kts | 239° |
| 2026-04-30 09:00 | 14.49982 | 121.00082 | 89 ft | 19 kts | 239° |
| 2026-04-30 09:00 | 14.49935 | 121.00002 | 88 ft | 9 kts | 238° |
| 2026-04-30 09:00 | 14.49922 | 120.99983 | 88 ft | 2 kts | 223° |
| 2026-04-30 09:01 | 14.49893 | 120.99970 | 89 ft | 6 kts | 179° |
| 2026-04-30 09:01 | 14.49842 | 120.99986 | 89 ft | 11 kts | 153° |
| 2026-04-30 09:01 | 14.49806 | 121.00035 | 88 ft | 7 kts | 86° |
| 2026-04-30 09:01 | 14.49826 | 121.00092 | 89 ft | 8 kts | 59° |
| 2026-04-30 09:02 | 14.49888 | 121.00197 | 89 ft | 33 kts | 59° |
| 2026-04-30 09:02 | 14.50125 | 121.00632 | 89 ft | 104 kts | 61° |
| 2026-04-30 09:02 | 14.50588 | 121.01460 | 90 ft | 164 kts | 62° |
| 2026-04-30 09:03 | 14.51156 | 121.02498 | 694 ft | 163 kts | 64° |
| 2026-04-30 09:03 | 14.51650 | 121.03438 | 1442 ft | 152 kts | 65° |
| 2026-04-30 09:03 | 14.52172 | 121.04391 | 1837 ft | 158 kts | 64° |
| 2026-04-30 09:03 | 14.52736 | 121.05396 | 2100 ft | 167 kts | 63° |
| 2026-04-30 09:04 | 14.53336 | 121.06469 | 2334 ft | 178 kts | 63° |
| 2026-04-30 09:04 | 14.53965 | 121.07596 | 2580 ft | 189 kts | 62° |
| 2026-04-30 09:04 | 14.54631 | 121.08798 | 2828 ft | 200 kts | 62° |
| 2026-04-30 09:04 | 14.55352 | 121.10094 | 3113 ft | 216 kts | 62° |
| 2026-04-30 09:05 | 14.56122 | 121.11479 | 3457 ft | 232 kts | 60° |
| 2026-04-30 09:05 | 14.57086 | 121.12856 | 3817 ft | 249 kts | 40° |
| 2026-04-30 09:05 | 14.58639 | 121.13628 | 4157 ft | 265 kts | 7° |
| 2026-04-30 09:05 | 14.60491 | 121.13579 | 4569 ft | 276 kts | 351° |
| 2026-04-30 09:06 | 14.62434 | 121.13317 | 5185 ft | 283 kts | 349° |
| 2026-04-30 09:06 | 14.64338 | 121.13043 | 5918 ft | 285 kts | 349° |
| 2026-04-30 09:06 | 14.66292 | 121.12768 | 6579 ft | 290 kts | 350° |
| 2026-04-30 09:06 | 14.67607 | 121.12590 | 7017 ft | 294 kts | 351° |
| 2026-04-30 09:07 | 14.70291 | 121.12245 | 8015 ft | 295 kts | 350° |
| 2026-04-30 09:07 | 14.72084 | 121.12013 | 8851 ft | 295 kts | 351° |
| 2026-04-30 09:07 | 14.74154 | 121.11755 | 10060 ft | 286 kts | 351° |
| 2026-04-30 09:07 | 14.76046 | 121.11523 | 10893 ft | 288 kts | 351° |
| 2026-04-30 09:08 | 14.78013 | 121.11277 | 11328 ft | 303 kts | 351° |
| 2026-04-30 09:08 | 14.80117 | 121.11012 | 11732 ft | 319 kts | 351° |
| 2026-04-30 09:08 | 14.82375 | 121.10729 | 12121 ft | 336 kts | 351° |
| 2026-04-30 09:08 | 14.84743 | 121.10432 | 12483 ft | 352 kts | 351° |
| 2026-04-30 09:09 | 14.87242 | 121.10117 | 12818 ft | 369 kts | 351° |
| 2026-04-30 09:09 | 14.89818 | 121.09796 | 13142 ft | 384 kts | 351° |
| 2026-04-30 09:09 | 14.92497 | 121.09463 | 13706 ft | 391 kts | 352° |
| 2026-04-30 09:09 | 14.95187 | 121.09128 | 14428 ft | 393 kts | 352° |
| 2026-04-30 09:10 | 14.97820 | 121.08800 | 15116 ft | 395 kts | 352° |
| 2026-04-30 09:10 | 15.00544 | 121.08459 | 15788 ft | 397 kts | 352° |
| 2026-04-30 09:10 | 15.03256 | 121.08120 | 16437 ft | 399 kts | 352° |
| 2026-04-30 09:10 | 15.06016 | 121.07774 | 17078 ft | 402 kts | 353° |
| 2026-04-30 09:11 | 15.08799 | 121.07426 | 17677 ft | 405 kts | 353° |
| 2026-04-30 09:11 | 15.11556 | 121.07081 | 18217 ft | 409 kts | 353° |
| 2026-04-30 09:11 | 15.14349 | 121.06733 | 18761 ft | 413 kts | 353° |
| 2026-04-30 09:11 | 15.17215 | 121.06375 | 19308 ft | 416 kts | 353° |
| 2026-04-30 09:12 | 15.20048 | 121.06020 | 19836 ft | 419 kts | 353° |
| 2026-04-30 09:12 | 15.22784 | 121.05677 | 20326 ft | 422 kts | 354° |
| 2026-04-30 09:12 | 15.25750 | 121.05305 | 20837 ft | 426 kts | 354° |
| 2026-04-30 09:12 | 15.28690 | 121.04935 | 21330 ft | 429 kts | 354° |
| 2026-04-30 09:13 | 15.31555 | 121.04574 | 21796 ft | 433 kts | 354° |
| 2026-04-30 09:13 | 15.34487 | 121.04205 | 22257 ft | 436 kts | 354° |
| 2026-04-30 09:13 | 15.37478 | 121.03827 | 22713 ft | 439 kts | 354° |
| 2026-04-30 09:13 | 15.40494 | 121.03447 | 23156 ft | 443 kts | 354° |
| 2026-04-30 09:14 | 15.43550 | 121.03059 | 23583 ft | 446 kts | 353° |
| 2026-04-30 09:14 | 15.46594 | 121.02462 | 23992 ft | 451 kts | 348° |
| 2026-04-30 09:14 | 15.49548 | 121.01544 | 24378 ft | 456 kts | 342° |
| 2026-04-30 09:14 | 15.52433 | 121.00285 | 24747 ft | 461 kts | 337° |
| 2026-04-30 09:15 | 15.55293 | 120.98811 | 25113 ft | 465 kts | 335° |
| 2026-04-30 09:15 | 15.58134 | 120.97290 | 25454 ft | 469 kts | 335° |
| 2026-04-30 09:15 | 15.60985 | 120.95754 | 25778 ft | 472 kts | 335° |
| 2026-04-30 09:15 | 15.63406 | 120.94452 | 26046 ft | 475 kts | 335° |
| 2026-04-30 09:16 | 15.74660 | 120.88437 | 27219 ft | 486 kts | 335° |
| 2026-04-30 09:17 | 15.77612 | 120.86864 | 27501 ft | 489 kts | 335° |
| 2026-04-30 09:17 | 15.80580 | 120.85281 | 27774 ft | 491 kts | 335° |
| 2026-04-30 09:17 | 15.83463 | 120.83745 | 28032 ft | 494 kts | 335° |
| 2026-04-30 09:17 | 15.86543 | 120.82103 | 28299 ft | 496 kts | 335° |
| 2026-04-30 09:18 | 15.89594 | 120.80476 | 28561 ft | 499 kts | 335° |
| 2026-04-30 09:18 | 15.92661 | 120.78840 | 28838 ft | 501 kts | 335° |
| 2026-04-30 09:18 | 15.95764 | 120.77184 | 29093 ft | 503 kts | 335° |
| 2026-04-30 09:18 | 15.98831 | 120.75546 | 29379 ft | 504 kts | 335° |
| 2026-04-30 09:19 | 16.01930 | 120.73891 | 29739 ft | 503 kts | 335° |
| 2026-04-30 09:19 | 16.05017 | 120.72241 | 30095 ft | 503 kts | 335° |
| 2026-04-30 09:19 | 16.08125 | 120.70579 | 30432 ft | 503 kts | 335° |
| 2026-04-30 09:19 | 16.11186 | 120.68944 | 30748 ft | 503 kts | 335° |
| 2026-04-30 09:20 | 16.14256 | 120.67308 | 31059 ft | 503 kts | 335° |
| 2026-04-30 09:20 | 16.17356 | 120.65658 | 31368 ft | 503 kts | 335° |
| 2026-04-30 09:20 | 16.20437 | 120.64014 | 31673 ft | 503 kts | 335° |
| 2026-04-30 09:20 | 16.23485 | 120.62386 | 31972 ft | 503 kts | 335° |
| 2026-04-30 09:21 | 16.26568 | 120.60735 | 32268 ft | 503 kts | 335° |
| 2026-04-30 09:21 | 16.29685 | 120.59065 | 32526 ft | 504 kts | 335° |
| 2026-04-30 09:21 | 16.32732 | 120.57432 | 32742 ft | 505 kts | 335° |
| 2026-04-30 09:21 | 16.35868 | 120.55750 | 32952 ft | 507 kts | 335° |
| 2026-04-30 09:22 | 16.39008 | 120.54065 | 33163 ft | 508 kts | 335° |
| 2026-04-30 09:22 | 16.42084 | 120.52412 | 33403 ft | 509 kts | 335° |
| 2026-04-30 09:22 | 16.45235 | 120.50719 | 33640 ft | 509 kts | 335° |
| 2026-04-30 09:22 | 16.48366 | 120.49035 | 33841 ft | 510 kts | 335° |
| 2026-04-30 09:23 | 16.51518 | 120.47339 | 34003 ft | 512 kts | 334° |
| 2026-04-30 09:23 | 16.54660 | 120.45645 | 34023 ft | 513 kts | 334° |
| 2026-04-30 09:23 | 16.60943 | 120.42258 | 34030 ft | 513 kts | 334° |
| 2026-04-30 09:24 | 16.67162 | 120.38693 | 34032 ft | 514 kts | 330° |
| 2026-04-30 09:24 | 16.72964 | 120.34563 | 34032 ft | 516 kts | 324° |
| 2026-04-30 09:25 | 16.78285 | 120.29821 | 34031 ft | 517 kts | 317° |
| 2026-04-30 09:25 | 16.83287 | 120.24474 | 34032 ft | 518 kts | 314° |
| 2026-04-30 09:26 | 16.88171 | 120.19060 | 34032 ft | 518 kts | 314° |
| 2026-04-30 09:26 | 16.92983 | 120.13744 | 34032 ft | 518 kts | 314° |
| 2026-04-30 09:27 | 16.97846 | 120.08391 | 34032 ft | 518 kts | 315° |
| 2026-04-30 09:27 | 17.02767 | 120.02978 | 34031 ft | 519 kts | 315° |
| 2026-04-30 09:28 | 17.07674 | 119.97578 | 34031 ft | 521 kts | 315° |
| 2026-04-30 09:28 | 17.12623 | 119.92139 | 34031 ft | 522 kts | 315° |
| 2026-04-30 09:29 | 17.17572 | 119.86719 | 34032 ft | 523 kts | 315° |
| 2026-04-30 09:29 | 17.22584 | 119.81207 | 34032 ft | 523 kts | 315° |
| 2026-04-30 09:30 | 17.27539 | 119.75741 | 34032 ft | 523 kts | 315° |
| 2026-04-30 09:30 | 17.32481 | 119.70280 | 34032 ft | 523 kts | 315° |
| 2026-04-30 09:31 | 17.37427 | 119.64810 | 34032 ft | 523 kts | 315° |
| 2026-04-30 09:31 | 17.42250 | 119.59472 | 34032 ft | 523 kts | 315° |
| 2026-04-30 09:32 | 17.47194 | 119.53994 | 34032 ft | 523 kts | 315° |
| 2026-04-30 09:32 | 17.52149 | 119.48500 | 34032 ft | 523 kts | 315° |
| 2026-04-30 09:33 | 17.57115 | 119.42989 | 34032 ft | 523 kts | 315° |
| 2026-04-30 09:33 | 17.62063 | 119.37494 | 34032 ft | 523 kts | 315° |
| 2026-04-30 09:34 | 17.66998 | 119.31995 | 34031 ft | 523 kts | 314° |
| 2026-04-30 09:34 | 17.71894 | 119.26517 | 34032 ft | 523 kts | 314° |
| 2026-04-30 09:35 | 17.76863 | 119.20969 | 34032 ft | 523 kts | 314° |
| 2026-04-30 09:35 | 17.81834 | 119.15427 | 34032 ft | 523 kts | 314° |
| 2026-04-30 09:36 | 17.86772 | 119.09919 | 34032 ft | 523 kts | 314° |
| 2026-04-30 09:36 | 17.91724 | 119.04390 | 34032 ft | 523 kts | 314° |
| 2026-04-30 09:37 | 17.96686 | 118.98845 | 34032 ft | 521 kts | 314° |
| 2026-04-30 09:37 | 18.01573 | 118.93382 | 34027 ft | 519 kts | 314° |
| 2026-04-30 09:38 | 18.06488 | 118.87887 | 33989 ft | 518 kts | 314° |
| 2026-04-30 09:38 | 18.11379 | 118.82413 | 33959 ft | 516 kts | 314° |
| 2026-04-30 09:39 | 18.16285 | 118.76946 | 33942 ft | 514 kts | 313° |
| 2026-04-30 09:39 | 18.21139 | 118.71518 | 33933 ft | 514 kts | 313° |
| 2026-04-30 09:40 | 18.26030 | 118.66028 | 33928 ft | 514 kts | 313° |
| 2026-04-30 09:40 | 18.30866 | 118.60591 | 33926 ft | 514 kts | 313° |
| 2026-04-30 09:41 | 18.35730 | 118.55116 | 33925 ft | 514 kts | 313° |
| 2026-04-30 09:41 | 18.40542 | 118.49695 | 33924 ft | 514 kts | 313° |
| 2026-04-30 09:42 | 18.45315 | 118.44313 | 33924 ft | 514 kts | 313° |
| 2026-04-30 09:42 | 18.50188 | 118.38814 | 33924 ft | 514 kts | 313° |
| 2026-04-30 09:43 | 18.55047 | 118.33322 | 33924 ft | 514 kts | 313° |
| 2026-04-30 09:43 | 18.59840 | 118.27872 | 33924 ft | 514 kts | 313° |
| 2026-04-30 09:44 | 18.64695 | 118.22360 | 33924 ft | 514 kts | 313° |
| 2026-04-30 09:44 | 18.69551 | 118.16854 | 33924 ft | 514 kts | 313° |
| 2026-04-30 09:45 | 18.74392 | 118.11365 | 33924 ft | 514 kts | 313° |
| 2026-04-30 09:45 | 18.79068 | 118.06060 | 33924 ft | 514 kts | 313° |
| 2026-04-30 09:46 | 18.83923 | 118.00546 | 33924 ft | 514 kts | 313° |
| 2026-04-30 09:46 | 18.88759 | 117.95049 | 33924 ft | 514 kts | 313° |
| 2026-04-30 09:47 | 18.93598 | 117.89544 | 33923 ft | 516 kts | 313° |
| 2026-04-30 09:47 | 18.98467 | 117.83998 | 33923 ft | 519 kts | 312° |
| 2026-04-30 09:48 | 19.03339 | 117.78445 | 33923 ft | 521 kts | 312° |
| 2026-04-30 09:48 | 19.08224 | 117.72879 | 33924 ft | 522 kts | 312° |
| 2026-04-30 09:49 | 19.13108 | 117.67320 | 33923 ft | 522 kts | 312° |
| 2026-04-30 09:49 | 19.17886 | 117.61894 | 33924 ft | 522 kts | 312° |
| 2026-04-30 09:50 | 19.22787 | 117.56303 | 33924 ft | 522 kts | 312° |
| 2026-04-30 09:50 | 19.27686 | 117.50697 | 33924 ft | 522 kts | 312° |
| 2026-04-30 09:51 | 19.32577 | 117.45091 | 33924 ft | 522 kts | 312° |
| 2026-04-30 09:51 | 19.37469 | 117.39478 | 33924 ft | 522 kts | 312° |
| 2026-04-30 09:52 | 19.42371 | 117.33846 | 33924 ft | 522 kts | 311° |
| 2026-04-30 09:52 | 19.47257 | 117.28199 | 33924 ft | 522 kts | 311° |
| 2026-04-30 09:53 | 19.52096 | 117.22611 | 33924 ft | 522 kts | 311° |
| 2026-04-30 09:53 | 19.57002 | 117.16956 | 33924 ft | 522 kts | 311° |
| 2026-04-30 09:54 | 19.61904 | 117.11302 | 33924 ft | 522 kts | 311° |
| 2026-04-30 09:54 | 19.66772 | 117.05673 | 33927 ft | 520 kts | 313° |
| 2026-04-30 09:55 | 19.71633 | 117.00053 | 33941 ft | 516 kts | 313° |
| 2026-04-30 09:55 | 19.76419 | 116.94525 | 33965 ft | 510 kts | 314° |
| 2026-04-30 09:56 | 19.81196 | 116.89003 | 33991 ft | 506 kts | 313° |
| 2026-04-30 09:56 | 19.85911 | 116.83543 | 34009 ft | 503 kts | 313° |
| 2026-04-30 09:57 | 19.90637 | 116.78058 | 34019 ft | 503 kts | 313° |
| 2026-04-30 09:57 | 19.95345 | 116.72546 | 34023 ft | 503 kts | 311° |
| 2026-04-30 09:58 | 19.99648 | 116.66705 | 34025 ft | 504 kts | 306° |
| 2026-04-30 09:58 | 20.03376 | 116.60393 | 34028 ft | 505 kts | 300° |
| 2026-04-30 09:59 | 20.09927 | 116.47127 | 34025 ft | 505 kts | 298° |
| 2026-04-30 10:00 | 20.14800 | 116.37293 | 34017 ft | 505 kts | 298° |
| 2026-04-30 10:01 | 20.19664 | 116.27403 | 34010 ft | 505 kts | 298° |
| 2026-04-30 10:02 | 20.24532 | 116.17465 | 34008 ft | 505 kts | 298° |
| 2026-04-30 10:02 | 20.27774 | 116.10847 | 34007 ft | 505 kts | 298° |
| 2026-04-30 10:03 | 20.31041 | 116.04173 | 34007 ft | 505 kts | 298° |
| 2026-04-30 10:03 | 20.34273 | 115.97581 | 34007 ft | 505 kts | 298° |
| 2026-04-30 10:04 | 20.37524 | 115.90942 | 34007 ft | 505 kts | 298° |
| 2026-04-30 10:04 | 20.40763 | 115.84309 | 34007 ft | 505 kts | 298° |
| 2026-04-30 10:05 | 20.43990 | 115.77683 | 34007 ft | 505 kts | 298° |
| 2026-04-30 10:05 | 20.47235 | 115.71008 | 34007 ft | 505 kts | 298° |
| 2026-04-30 10:06 | 20.50449 | 115.64394 | 34007 ft | 505 kts | 299° |
| 2026-04-30 10:06 | 20.54007 | 115.57924 | 34006 ft | 505 kts | 304° |
| 2026-04-30 10:07 | 20.58129 | 115.51939 | 34006 ft | 504 kts | 310° |
| 2026-04-30 10:07 | 20.62827 | 115.46424 | 33730 ft | 504 kts | 316° |
| 2026-04-30 10:07 | 20.65293 | 115.43827 | 33218 ft | 501 kts | 317° |
| 2026-04-30 10:08 | 20.67733 | 115.41292 | 32588 ft | 499 kts | 317° |
| 2026-04-30 10:08 | 20.70071 | 115.38863 | 31926 ft | 497 kts | 317° |
| 2026-04-30 10:08 | 20.72490 | 115.36344 | 31207 ft | 497 kts | 317° |
| 2026-04-30 10:08 | 20.74864 | 115.33862 | 30476 ft | 497 kts | 316° |
| 2026-04-30 10:09 | 20.77255 | 115.31343 | 29717 ft | 496 kts | 316° |
| 2026-04-30 10:09 | 20.79659 | 115.28806 | 28931 ft | 496 kts | 316° |
| 2026-04-30 10:09 | 20.82107 | 115.26227 | 28298 ft | 492 kts | 316° |
| 2026-04-30 10:09 | 20.84524 | 115.23683 | 27863 ft | 488 kts | 316° |
| 2026-04-30 10:10 | 20.86893 | 115.21192 | 27298 ft | 484 kts | 316° |
| 2026-04-30 10:10 | 20.89160 | 115.18810 | 26786 ft | 479 kts | 316° |
| 2026-04-30 10:10 | 20.91497 | 115.16353 | 26283 ft | 473 kts | 316° |
| 2026-04-30 10:10 | 20.93810 | 115.13919 | 25761 ft | 469 kts | 316° |
| 2026-04-30 10:11 | 20.96105 | 115.11503 | 25195 ft | 464 kts | 316° |
| 2026-04-30 10:11 | 20.98346 | 115.09140 | 24688 ft | 459 kts | 316° |
| 2026-04-30 10:11 | 21.00581 | 115.06783 | 24204 ft | 454 kts | 316° |
| 2026-04-30 10:11 | 21.02788 | 115.04458 | 23739 ft | 448 kts | 316° |
| 2026-04-30 10:12 | 21.04959 | 115.02171 | 23285 ft | 442 kts | 316° |
| 2026-04-30 10:12 | 21.07070 | 114.99945 | 22845 ft | 437 kts | 316° |
| 2026-04-30 10:12 | 21.09145 | 114.97759 | 22411 ft | 432 kts | 316° |
| 2026-04-30 10:12 | 21.10860 | 114.95950 | 22048 ft | 428 kts | 316° |
| 2026-04-30 10:13 | 21.13047 | 114.93656 | 21584 ft | 423 kts | 316° |
| 2026-04-30 10:13 | 21.15310 | 114.91279 | 21092 ft | 418 kts | 316° |
| 2026-04-30 10:13 | 21.17361 | 114.89119 | 20637 ft | 415 kts | 316° |
| 2026-04-30 10:13 | 21.19348 | 114.87021 | 20191 ft | 411 kts | 316° |
| 2026-04-30 10:14 | 21.21362 | 114.84892 | 19736 ft | 408 kts | 316° |
| 2026-04-30 10:14 | 21.23340 | 114.82798 | 19286 ft | 404 kts | 316° |
| 2026-04-30 10:14 | 21.27236 | 114.78670 | 18394 ft | 398 kts | 316° |
| 2026-04-30 10:15 | 21.29139 | 114.76653 | 17956 ft | 396 kts | 316° |
| 2026-04-30 10:15 | 21.31071 | 114.74603 | 17510 ft | 393 kts | 316° |
| 2026-04-30 10:15 | 21.32980 | 114.72576 | 17068 ft | 390 kts | 316° |
| 2026-04-30 10:15 | 21.34856 | 114.70583 | 16632 ft | 387 kts | 316° |
| 2026-04-30 10:16 | 21.36741 | 114.68580 | 16192 ft | 385 kts | 316° |
| 2026-04-30 10:16 | 21.38533 | 114.66676 | 15773 ft | 383 kts | 316° |
| 2026-04-30 10:16 | 21.40387 | 114.64703 | 15334 ft | 380 kts | 316° |
| 2026-04-30 10:17 | 21.44032 | 114.60799 | 14521 ft | 383 kts | 314° |
| 2026-04-30 10:17 | 21.47477 | 114.56594 | 14035 ft | 393 kts | 311° |
| 2026-04-30 10:17 | 21.49180 | 114.54458 | 13795 ft | 392 kts | 311° |
| 2026-04-30 10:18 | 21.50937 | 114.52260 | 13546 ft | 391 kts | 311° |
| 2026-04-30 10:18 | 21.52665 | 114.50104 | 13302 ft | 389 kts | 311° |
| 2026-04-30 10:18 | 21.54451 | 114.47881 | 13048 ft | 388 kts | 311° |
| 2026-04-30 10:19 | 21.57910 | 114.43581 | 12556 ft | 385 kts | 311° |
| 2026-04-30 10:19 | 21.59609 | 114.41471 | 12310 ft | 384 kts | 311° |
| 2026-04-30 10:19 | 21.61303 | 114.39367 | 12063 ft | 382 kts | 311° |
| 2026-04-30 10:19 | 21.62986 | 114.37274 | 11785 ft | 381 kts | 311° |
| 2026-04-30 10:20 | 21.64636 | 114.35221 | 11420 ft | 379 kts | 311° |
| 2026-04-30 10:20 | 21.67928 | 114.31105 | 10864 ft | 362 kts | 311° |
| 2026-04-30 10:20 | 21.69399 | 114.29264 | 10744 ft | 349 kts | 311° |
| 2026-04-30 10:21 | 21.70950 | 114.27325 | 10610 ft | 336 kts | 311° |
| 2026-04-30 10:21 | 21.72433 | 114.25472 | 10489 ft | 323 kts | 311° |
| 2026-04-30 10:21 | 21.73823 | 114.23738 | 10385 ft | 311 kts | 311° |
| 2026-04-30 10:21 | 21.75185 | 114.22038 | 10295 ft | 300 kts | 311° |
| 2026-04-30 10:22 | 21.76483 | 114.20418 | 10218 ft | 288 kts | 311° |
| 2026-04-30 10:22 | 21.77724 | 114.18870 | 10154 ft | 277 kts | 311° |
| 2026-04-30 10:22 | 21.78932 | 114.17361 | 10059 ft | 271 kts | 311° |
| 2026-04-30 10:22 | 21.80123 | 114.15874 | 9766 ft | 271 kts | 311° |
| 2026-04-30 10:23 | 21.81324 | 114.14376 | 9494 ft | 270 kts | 311° |
| 2026-04-30 10:23 | 21.82481 | 114.12932 | 9240 ft | 269 kts | 311° |
| 2026-04-30 10:23 | 21.83608 | 114.11525 | 8996 ft | 267 kts | 312° |
| 2026-04-30 10:23 | 21.84805 | 114.10031 | 8739 ft | 266 kts | 312° |
| 2026-04-30 10:24 | 21.85987 | 114.08555 | 8486 ft | 265 kts | 312° |
| 2026-04-30 10:24 | 21.87143 | 114.07110 | 8240 ft | 264 kts | 312° |
| 2026-04-30 10:24 | 21.88295 | 114.05670 | 7995 ft | 263 kts | 312° |
| 2026-04-30 10:24 | 21.89482 | 114.04187 | 7744 ft | 261 kts | 312° |
| 2026-04-30 10:25 | 21.90645 | 114.02733 | 7498 ft | 261 kts | 312° |
| 2026-04-30 10:25 | 21.91781 | 114.01312 | 7258 ft | 260 kts | 312° |
| 2026-04-30 10:25 | 21.92947 | 113.99854 | 7012 ft | 259 kts | 312° |
| 2026-04-30 10:25 | 21.94092 | 113.98422 | 6771 ft | 258 kts | 312° |
| 2026-04-30 10:26 | 21.95248 | 113.96975 | 6529 ft | 258 kts | 312° |
| 2026-04-30 10:26 | 21.96413 | 113.95516 | 6286 ft | 257 kts | 312° |
| 2026-04-30 10:26 | 21.97576 | 113.94060 | 6043 ft | 256 kts | 312° |
| 2026-04-30 10:26 | 21.98731 | 113.92612 | 5802 ft | 256 kts | 312° |
| 2026-04-30 10:27 | 21.99879 | 113.91175 | 5563 ft | 255 kts | 312° |
| 2026-04-30 10:27 | 22.01028 | 113.89735 | 5324 ft | 255 kts | 312° |
| 2026-04-30 10:27 | 22.02181 | 113.88290 | 5086 ft | 254 kts | 312° |
| 2026-04-30 10:27 | 22.03324 | 113.86856 | 4850 ft | 254 kts | 312° |
| 2026-04-30 10:28 | 22.04476 | 113.85410 | 4612 ft | 253 kts | 312° |
| 2026-04-30 10:28 | 22.05612 | 113.83984 | 4378 ft | 253 kts | 312° |
| 2026-04-30 10:28 | 22.06745 | 113.82563 | 4144 ft | 253 kts | 312° |
| 2026-04-30 10:28 | 22.07880 | 113.81138 | 3911 ft | 252 kts | 312° |
| 2026-04-30 10:29 | 22.09028 | 113.79696 | 3676 ft | 252 kts | 311° |
| 2026-04-30 10:29 | 22.10151 | 113.78333 | 3444 ft | 251 kts | 317° |
| 2026-04-30 10:29 | 22.11519 | 113.77196 | 3206 ft | 250 kts | 331° |
| 2026-04-30 10:29 | 22.13049 | 113.76362 | 2977 ft | 249 kts | 336° |
| 2026-04-30 10:30 | 22.14632 | 113.75596 | 2748 ft | 248 kts | 337° |
| 2026-04-30 10:30 | 22.16166 | 113.74859 | 2711 ft | 237 kts | 337° |
| 2026-04-30 10:30 | 22.17610 | 113.74155 | 2688 ft | 225 kts | 337° |
| 2026-04-30 10:30 | 22.18999 | 113.73469 | 2656 ft | 214 kts | 336° |
| 2026-04-30 10:31 | 22.20285 | 113.72829 | 2619 ft | 203 kts | 336° |
| 2026-04-30 10:31 | 22.21504 | 113.72221 | 2576 ft | 192 kts | 336° |
| 2026-04-30 10:31 | 22.22669 | 113.71664 | 2511 ft | 183 kts | 346° |
| 2026-04-30 10:31 | 22.23859 | 113.71716 | 2402 ft | 174 kts | 28° |
| 2026-04-30 10:32 | 22.24772 | 113.72449 | 2343 ft | 164 kts | 42° |
| 2026-04-30 10:32 | 22.25601 | 113.73247 | 2195 ft | 162 kts | 43° |
| 2026-04-30 10:32 | 22.26430 | 113.74049 | 2002 ft | 163 kts | 43° |
| 2026-04-30 10:32 | 22.27258 | 113.74840 | 1779 ft | 162 kts | 43° |
| 2026-04-30 10:33 | 22.28055 | 113.75669 | 1596 ft | 160 kts | 58° |
| 2026-04-30 10:33 | 22.28518 | 113.76721 | 1601 ft | 160 kts | 71° |
| 2026-04-30 10:33 | 22.28849 | 113.77812 | 1580 ft | 154 kts | 73° |
| 2026-04-30 10:33 | 22.29163 | 113.78898 | 1578 ft | 152 kts | 73° |
| 2026-04-30 10:34 | 22.29488 | 113.79964 | 1578 ft | 150 kts | 72° |
| 2026-04-30 10:34 | 22.29813 | 113.80980 | 1435 ft | 146 kts | 72° |
| 2026-04-30 10:34 | 22.30143 | 113.81995 | 1247 ft | 145 kts | 71° |
| 2026-04-30 10:34 | 22.30464 | 113.82982 | 1060 ft | 144 kts | 72° |
| 2026-04-30 10:35 | 22.30786 | 113.83977 | 872 ft | 144 kts | 72° |
| 2026-04-30 10:35 | 22.31098 | 113.84957 | 688 ft | 143 kts | 72° |
| 2026-04-30 10:35 | 22.31420 | 113.85941 | 503 ft | 143 kts | 72° |
| 2026-04-30 10:35 | 22.31731 | 113.86900 | 323 ft | 142 kts | 72° |
| 2026-04-30 10:36 | 22.32043 | 113.87870 | 139 ft | 141 kts | 72° |
| 2026-04-30 10:36 | 22.32348 | 113.88816 | 34 ft | 128 kts | 71° |
| 2026-04-30 10:36 | 22.32575 | 113.89529 | 36 ft | 86 kts | 71° |
| 2026-04-30 10:37 | 22.32695 | 113.90075 | 36 ft | 2 kts | 95° |
| 2026-04-30 10:37 | 22.32694 | 113.90085 | 36 ft | 3 kts | 95° |
| 2026-04-30 10:37 | 22.32690 | 113.90125 | 36 ft | 6 kts | 96° |
| 2026-04-30 10:37 | 22.32690 | 113.90127 | 36 ft | 0 kts | 96° |
| 2026-04-30 10:38 | 22.32690 | 113.90131 | 36 ft | 3 kts | 97° |
| 2026-04-30 10:38 | 22.32682 | 113.90181 | 36 ft | 9 kts | 100° |
| 2026-04-30 10:39 | 22.32666 | 113.90276 | 36 ft | 9 kts | 101° |
| 2026-04-30 10:39 | 22.32636 | 113.90357 | 36 ft | 15 kts | 133° |
| 2026-04-30 10:39 | 22.32525 | 113.90412 | 36 ft | 21 kts | 161° |
| 2026-04-30 10:39 | 22.32379 | 113.90466 | 36 ft | 19 kts | 161° |
| 2026-04-30 10:40 | 22.32239 | 113.90518 | 36 ft | 23 kts | 161° |
| 2026-04-30 10:40 | 22.32064 | 113.90584 | 36 ft | 29 kts | 161° |
| 2026-04-30 10:40 | 22.31904 | 113.90643 | 36 ft | 20 kts | 161° |
| 2026-04-30 10:40 | 22.31766 | 113.90694 | 37 ft | 18 kts | 161° |
| 2026-04-30 10:41 | 22.31689 | 113.90769 | 37 ft | 16 kts | 93° |
| 2026-04-30 10:41 | 22.31721 | 113.90897 | 37 ft | 18 kts | 69° |
| 2026-04-30 10:41 | 22.31763 | 113.91030 | 37 ft | 18 kts | 70° |
| 2026-04-30 10:41 | 22.31803 | 113.91153 | 37 ft | 18 kts | 71° |
| 2026-04-30 10:42 | 22.31833 | 113.91244 | 37 ft | 2 kts | 71° |
| 2026-04-30 10:42 | 22.31846 | 113.91289 | 37 ft | 10 kts | 77° |
| 2026-04-30 10:42 | 22.31829 | 113.91357 | 37 ft | 9 kts | 141° |
| 2026-04-30 10:42 | 22.31789 | 113.91374 | 37 ft | 5 kts | 168° |
| 2026-04-30 10:43 | 22.31745 | 113.91392 | 37 ft | 7 kts | 155° |
| 2026-04-30 10:43 | 22.31675 | 113.91420 | 37 ft | 12 kts | 162° |
| 2026-04-30 10:43 | 22.31598 | 113.91449 | 37 ft | 8 kts | 159° |
| 2026-04-30 10:43 | 22.31581 | 113.91456 | 37 ft | 2 kts | 159° |
| 2026-04-30 10:44 | 22.31558 | 113.91465 | 37 ft | 6 kts | 159° |
| 2026-04-30 10:44 | 22.31497 | 113.91497 | 37 ft | 12 kts | 136° |
| 2026-04-30 10:44 | 22.31485 | 113.91578 | 37 ft | 12 kts | 76° |
| 2026-04-30 10:44 | 22.31513 | 113.91668 | 37 ft | 14 kts | 70° |
| 2026-04-30 10:45 | 22.31546 | 113.91772 | 37 ft | 15 kts | 71° |
| 2026-04-30 10:45 | 22.31585 | 113.91893 | 37 ft | 17 kts | 70° |
| 2026-04-30 10:45 | 22.31621 | 113.92006 | 37 ft | 15 kts | 71° |
| 2026-04-30 10:45 | 22.31656 | 113.92111 | 37 ft | 16 kts | 71° |
| 2026-04-30 10:46 | 22.31697 | 113.92237 | 37 ft | 17 kts | 70° |
| 2026-04-30 10:46 | 22.31734 | 113.92356 | 37 ft | 13 kts | 77° |
| 2026-04-30 10:46 | 22.31701 | 113.92424 | 37 ft | 10 kts | 151° |
| 2026-04-30 10:46 | 22.31636 | 113.92460 | 37 ft | 9 kts | 134° |
| 2026-04-30 10:47 | 22.31599 | 113.92524 | 37 ft | 10 kts | 117° |
| 2026-04-30 10:47 | 22.31565 | 113.92596 | 37 ft | 9 kts | 116° |
| 2026-04-30 10:47 | 22.31531 | 113.92672 | 37 ft | 13 kts | 115° |
| 2026-04-30 10:47 | 22.31496 | 113.92752 | 37 ft | 5 kts | 110° |
| 2026-04-30 10:48 | 22.31492 | 113.92789 | 37 ft | 6 kts | 83° |
| 2026-04-30 10:48 | 22.31508 | 113.92852 | 37 ft | 11 kts | 73° |
| 2026-04-30 10:48 | 22.31531 | 113.92928 | 37 ft | 7 kts | 71° |
| 2026-04-30 10:48 | 22.31520 | 113.92971 | 37 ft | 7 kts | 136° |
| 2026-04-30 10:49 | 22.31479 | 113.92992 | 37 ft | 5 kts | 159° |
| 2026-04-30 10:49 | 22.31456 | 113.93001 | 37 ft | 2 kts | 159° |
| 2026-04-30 10:49 | 22.31452 | 113.93002 | 37 ft | 0 kts | 160° |